createdAt,value
2023-04-26T00:00:49.962Z,68.22
2023-04-26T00:05:49.986Z,68.87
2023-04-26T00:10:49.720Z,69.38
2023-04-26T00:15:52.706Z,69.38
2023-04-26T00:20:49.599Z,71.00
2023-04-26T00:25:49.564Z,70.14
2023-04-26T00:30:49.465Z,70.24
2023-04-26T00:35:49.445Z,70.17
2023-04-26T00:40:49.340Z,69.52
2023-04-26T00:45:49.335Z,70.55
2023-04-26T00:50:49.209Z,69.86
2023-04-26T00:55:49.345Z,70.37
2023-04-26T01:00:49.161Z,69.31
2023-04-26T01:05:49.055Z,69.55
2023-04-26T01:10:48.939Z,69.55
2023-04-26T01:15:52.186Z,68.96
2023-04-26T01:20:48.972Z,70.10
2023-04-26T01:25:48.874Z,70.07
2023-04-26T01:30:48.945Z,70.20
2023-04-26T01:35:48.664Z,69.69
2023-04-26T01:40:48.622Z,69.48
2023-04-26T01:45:48.533Z,69.69
2023-04-26T01:50:48.441Z,70.65
2023-04-26T01:55:48.391Z,70.03
2023-04-26T02:00:48.321Z,70.54
2023-04-26T02:05:48.311Z,70.23
2023-04-26T02:10:48.178Z,70.40
2023-04-26T02:15:51.236Z,70.72
2023-04-26T02:20:48.039Z,71.57
2023-04-26T02:25:48.697Z,71.06
2023-04-26T02:30:47.910Z,70.72
2023-04-26T02:35:47.940Z,70.23
2023-04-26T02:40:47.970Z,71.88
2023-04-26T02:45:47.819Z,71.84
2023-04-26T02:50:47.651Z,72.78
2023-04-26T02:55:47.624Z,72.91
2023-04-26T03:00:47.519Z,73.88
2023-04-26T03:05:47.544Z,73.39
2023-04-26T03:10:47.423Z,74.60
2023-04-26T03:15:50.410Z,75.92
2023-04-26T03:20:47.352Z,77.12
2023-04-26T03:25:47.293Z,76.92
2023-04-26T03:30:47.206Z,77.44
2023-04-26T03:35:47.340Z,77.68
2023-04-26T03:40:47.010Z,77.99
2023-04-26T03:45:46.982Z,77.23
2023-04-26T03:50:46.906Z,77.68
2023-04-26T03:55:46.865Z,78.41
2023-04-26T04:00:46.815Z,77.95
2023-04-26T04:05:46.786Z,76.89
2023-04-26T04:10:46.684Z,76.99
2023-04-26T04:15:49.735Z,77.09
2023-04-26T04:20:46.632Z,76.29
2023-04-26T04:25:46.589Z,73.50
2023-04-26T04:30:46.363Z,70.98
2023-04-26T04:35:46.344Z,68.41
2023-04-26T04:40:46.235Z,67.29
2023-04-26T04:45:46.281Z,64.41
2023-04-26T04:50:46.103Z,62.71
2023-04-26T04:55:46.076Z,60.47
2023-04-26T05:00:45.975Z,59.38
2023-04-26T05:05:45.983Z,59.38
2023-04-26T05:10:45.850Z,59.80
2023-04-26T05:15:48.824Z,59.59
2023-04-26T05:20:45.798Z,57.61
2023-04-26T05:25:45.814Z,55.97
2023-04-26T05:30:45.575Z,57.30
2023-04-26T05:35:45.549Z,56.76
2023-04-26T05:40:45.523Z,55.74
2023-04-26T05:45:45.518Z,52.83
2023-04-26T05:50:45.453Z,51.03
2023-04-26T05:55:45.365Z,49.55
2023-04-26T06:00:45.174Z,49.02
2023-04-26T06:05:45.209Z,50.84
2023-04-26T06:10:45.147Z,51.58
2023-04-26T06:15:48.040Z,51.71
2023-04-26T06:20:44.967Z,50.09
2023-04-26T06:25:45.007Z,49.70
2023-04-26T06:30:44.883Z,54.21
2023-04-26T06:35:44.774Z,54.10
2023-04-26T06:40:44.669Z,52.45
2023-04-26T06:45:45.726Z,45.17
2023-04-26T06:50:44.603Z,44.65
2023-04-26T06:55:44.573Z,46.06
2023-04-26T07:00:44.446Z,47.44
2023-04-26T07:05:44.583Z,48.10
2023-04-26T07:10:44.266Z,49.67
2023-04-26T07:15:47.443Z,49.51
2023-04-26T07:20:44.170Z,45.12
2023-04-26T07:25:44.111Z,45.70
2023-04-26T07:30:44.013Z,41.46
2023-04-26T07:35:43.992Z,43.14
2023-04-26T07:40:44.082Z,44.30
2023-04-26T07:45:43.922Z,44.31
2023-04-26T07:50:43.847Z,46.61
2023-04-26T07:55:43.787Z,48.79
2023-04-26T08:00:43.669Z,52.00
2023-04-26T08:05:44.132Z,55.41
2023-04-26T08:10:43.453Z,53.11
2023-04-26T08:15:46.589Z,51.90
2023-04-26T08:20:43.345Z,49.57
2023-04-26T08:25:43.289Z,51.29
2023-04-26T08:30:43.245Z,49.63
2023-04-26T08:35:43.200Z,49.32
2023-04-26T08:40:43.058Z,50.23
2023-04-26T08:45:43.213Z,50.26
2023-04-26T08:50:42.949Z,48.43
2023-04-26T08:55:43.029Z,50.44
2023-04-26T09:00:42.815Z,51.67
2023-04-26T09:05:43.044Z,52.70
2023-04-26T09:10:42.783Z,48.56
2023-04-26T09:15:46.260Z,44.64
2023-04-26T09:20:42.560Z,45.00
2023-04-26T09:25:42.517Z,44.38
2023-04-26T09:30:42.409Z,44.61
2023-04-26T09:35:42.449Z,45.67
2023-04-26T09:40:42.328Z,44.53
2023-04-26T09:45:42.372Z,48.14
2023-04-26T09:50:42.148Z,48.77
2023-04-26T09:55:42.177Z,47.26
2023-04-26T10:00:42.160Z,49.10
2023-04-26T10:05:42.178Z,49.65
2023-04-26T10:10:41.854Z,48.33
2023-04-26T10:15:44.841Z,46.04
2023-04-26T10:20:41.788Z,46.56
2023-04-26T10:25:41.766Z,42.77
2023-04-26T10:30:41.590Z,42.06
2023-04-26T10:35:41.615Z,43.59
2023-04-26T10:40:41.538Z,43.88
2023-04-26T10:45:41.529Z,42.69
2023-04-26T10:50:41.350Z,40.57
2023-04-26T10:55:41.428Z,39.54
2023-04-26T11:00:41.273Z,41.53
2023-04-26T11:05:41.201Z,40.94
2023-04-26T11:10:41.189Z,42.29
2023-04-26T11:15:44.205Z,40.61
2023-04-26T11:20:41.005Z,42.33
2023-04-26T11:25:40.912Z,42.04
2023-04-26T11:30:40.908Z,43.96
2023-04-26T11:35:40.969Z,43.55
2023-04-26T11:40:40.810Z,44.43
2023-04-26T11:45:40.646Z,41.06
2023-04-26T11:50:40.579Z,41.57
2023-04-26T11:55:40.714Z,41.12
2023-04-26T12:00:40.569Z,41.55
2023-04-26T12:05:40.507Z,41.53
2023-04-26T12:10:40.389Z,40.30
2023-04-26T12:15:43.400Z,41.22
2023-04-26T12:20:40.279Z,39.96
2023-04-26T12:25:40.269Z,40.09
2023-04-26T12:30:40.080Z,38.29
2023-04-26T12:35:40.087Z,40.08
2023-04-26T12:40:39.911Z,40.49
2023-04-26T12:45:40.015Z,39.82
2023-04-26T12:50:39.854Z,39.62
2023-04-26T12:55:39.835Z,38.07
2023-04-26T13:00:39.631Z,39.60
2023-04-26T13:05:39.897Z,40.94
2023-04-26T13:10:39.543Z,40.78
2023-04-26T13:15:42.513Z,40.09
2023-04-26T13:20:39.393Z,39.64
2023-04-26T13:25:39.438Z,39.50
2023-04-26T13:30:39.269Z,38.70
2023-04-26T13:35:39.272Z,37.45
2023-04-26T13:40:39.165Z,39.04
2023-04-26T13:45:39.202Z,39.26
2023-04-26T13:50:39.135Z,39.11
2023-04-26T13:55:39.036Z,39.06
2023-04-26T14:00:38.905Z,39.60
2023-04-26T14:05:39.207Z,39.74
2023-04-26T14:10:38.784Z,40.21
2023-04-26T14:15:41.795Z,38.65
2023-04-26T14:20:38.865Z,39.98
2023-04-26T14:25:38.584Z,39.43
2023-04-26T14:30:38.718Z,39.65
2023-04-26T14:35:38.653Z,39.51
2023-04-26T14:40:38.349Z,37.08
2023-04-26T14:50:38.320Z,37.90
2023-04-26T14:55:38.299Z,38.53
2023-04-26T15:00:38.082Z,38.97
2023-04-26T15:05:38.129Z,38.38
2023-04-26T15:10:37.951Z,39.62
2023-04-26T15:15:40.932Z,39.47
2023-04-26T15:20:38.033Z,40.37
2023-04-26T15:25:37.759Z,42.33
2023-04-26T15:30:37.690Z,41.59
2023-04-26T15:35:37.957Z,40.05
2023-04-26T15:40:38.347Z,41.08
2023-04-26T15:45:37.524Z,41.25
2023-04-26T15:50:37.639Z,40.52
2023-04-26T15:55:37.457Z,40.53
2023-04-26T16:10:05.332Z,43.14
2023-04-26T16:15:04.972Z,42.10
2023-04-26T16:20:04.936Z,42.53
2023-04-26T16:25:05.303Z,41.89
2023-04-26T16:30:04.805Z,41.96
2023-04-26T16:35:04.731Z,41.14
2023-04-26T16:40:06.579Z,42.69
2023-04-26T16:45:04.593Z,41.49
2023-04-26T16:50:04.670Z,43.04
2023-04-26T16:55:04.445Z,44.41
2023-04-26T17:00:07.441Z,44.12
2023-04-26T17:05:04.413Z,45.41
2023-04-26T17:10:04.310Z,45.32
2023-04-26T17:15:04.857Z,44.88
2023-04-26T17:20:04.183Z,47.13
2023-04-26T17:25:03.991Z,46.41
2023-04-26T17:30:04.068Z,45.70
2023-04-26T17:35:04.181Z,46.51
2023-04-26T17:40:04.019Z,46.86
2023-04-26T17:45:03.816Z,47.05
2023-04-26T17:50:03.721Z,47.48
2023-04-26T17:55:03.606Z,48.11
2023-04-26T18:00:06.817Z,49.34
2023-04-26T18:05:03.622Z,50.52
2023-04-26T18:10:03.438Z,53.10
2023-04-26T18:15:03.402Z,56.02
2023-04-26T18:20:03.399Z,57.62
2023-04-26T18:25:03.251Z,59.29
2023-04-26T18:30:03.331Z,60.03
2023-04-26T18:35:03.171Z,60.68
2023-04-26T18:40:03.252Z,60.78
2023-04-26T18:45:02.984Z,61.19
2023-04-26T18:50:10.429Z,61.51
2023-04-26T18:55:03.054Z,61.12
2023-04-26T19:00:06.010Z,61.43
2023-04-26T19:05:02.963Z,61.84
2023-04-26T19:10:02.870Z,62.07
2023-04-26T19:15:03.152Z,62.70
2023-04-26T19:20:02.870Z,63.13
2023-04-26T19:25:02.495Z,63.68
2023-04-26T19:30:02.562Z,63.27
2023-04-26T19:35:02.483Z,63.60
2023-04-26T19:40:02.458Z,63.71
2023-04-26T19:45:02.570Z,63.40
2023-04-26T19:50:02.376Z,63.50
2023-04-26T19:55:02.231Z,63.84
2023-04-26T20:00:05.002Z,64.59
2023-04-26T20:05:02.062Z,65.58
2023-04-26T20:10:02.081Z,65.79
2023-04-26T20:15:02.107Z,67.27
2023-04-26T20:20:01.854Z,68.60
2023-04-26T20:25:02.052Z,70.01
2023-04-26T20:30:01.757Z,68.53
2023-04-26T20:35:01.569Z,68.19
2023-04-26T20:40:01.561Z,68.98
2023-04-26T20:45:02.438Z,69.97
2023-04-26T20:50:01.374Z,69.73
2023-04-26T20:55:01.295Z,70.39
2023-04-26T21:00:04.218Z,71.25
2023-04-26T21:05:01.191Z,71.35
2023-04-26T21:10:01.254Z,71.08
2023-04-26T21:15:01.194Z,71.83
2023-04-26T21:20:01.061Z,71.39
2023-04-26T21:25:08.824Z,70.31
2023-04-26T21:30:00.816Z,70.59
2023-04-26T21:35:01.385Z,71.14
2023-04-26T21:40:00.967Z,71.77
2023-04-26T21:45:01.515Z,70.90
2023-04-26T21:50:00.693Z,71.18
2023-04-26T21:55:00.559Z,70.97
2023-04-26T22:00:03.511Z,71.53
2023-04-26T22:05:00.514Z,71.84
2023-04-26T22:10:01.227Z,72.28
2023-04-26T22:15:00.290Z,72.25
2023-04-26T22:20:00.235Z,71.73
2023-04-26T22:25:00.232Z,72.36
2023-04-26T22:30:06.242Z,71.70
2023-04-26T22:35:01.379Z,71.91
2023-04-26T22:39:59.980Z,72.01
2023-04-26T22:44:59.947Z,73.84
2023-04-26T22:49:59.843Z,74.36
2023-04-26T22:55:00.071Z,73.94
2023-04-26T23:00:02.721Z,73.80
2023-04-26T23:05:20.813Z,73.28
2023-04-26T23:09:59.653Z,73.60
2023-04-26T23:14:59.473Z,73.39
2023-04-26T23:19:59.426Z,73.18
2023-04-26T23:24:59.403Z,73.60
2023-04-26T23:29:59.263Z,74.05
2023-04-26T23:34:59.404Z,74.81
2023-04-26T23:39:59.126Z,75.36
2023-04-26T23:44:59.236Z,75.57
2023-04-26T23:49:59.255Z,75.57
2023-04-26T23:59:45.021Z,76.37
